createdAt,value
2023-02-28T00:01:30.976Z,3.32
2023-02-28T00:04:00.357Z,3.62
2023-02-28T00:06:28.802Z,3.63
2023-02-28T00:08:59.561Z,3.67
2023-02-28T00:11:27.741Z,3.64
2023-02-28T00:13:57.795Z,3.63
2023-02-28T00:16:25.691Z,3.63
2023-02-28T00:18:53.551Z,3.62
2023-02-28T00:21:22.952Z,3.26
2023-02-28T00:23:50.868Z,3.64
2023-02-28T00:26:21.595Z,3.65
2023-02-28T00:28:50.507Z,3.59
2023-02-28T00:31:18.254Z,3.43
2023-02-28T00:33:46.091Z,3.57
2023-02-28T00:36:16.102Z,3.36
2023-02-28T00:38:45.240Z,3.35
2023-02-28T00:41:13.034Z,3.51
2023-02-28T00:43:42.077Z,3.48
2023-02-28T00:46:10.089Z,3.46
2023-02-28T00:48:38.430Z,3.50
2023-02-28T00:51:06.903Z,3.34
2023-02-28T00:53:35.158Z,3.46
2023-02-28T00:56:04.586Z,3.34
2023-02-28T00:58:33.970Z,3.44
2023-02-28T01:01:02.005Z,3.42
2023-02-28T01:03:30.234Z,3.37
2023-02-28T01:05:58.362Z,3.34
2023-02-28T01:08:26.931Z,3.30
2023-02-28T01:10:54.872Z,3.26
2023-02-28T01:13:26.192Z,3.33
2023-02-28T01:15:56.981Z,3.33
2023-02-28T01:18:26.434Z,3.21
2023-02-28T01:20:54.634Z,3.28
2023-02-28T01:23:24.242Z,3.27
2023-02-28T01:25:52.203Z,3.05
2023-02-28T01:28:19.995Z,3.17
2023-02-28T01:30:51.616Z,3.14
2023-02-28T01:33:19.385Z,3.19
2023-02-28T01:35:47.193Z,3.20
2023-02-28T01:38:22.217Z,3.18
2023-02-28T01:40:50.524Z,3.21
2023-02-28T01:43:23.041Z,3.22
2023-02-28T01:45:52.386Z,3.22
2023-02-28T01:48:23.373Z,3.19
2023-02-28T01:50:59.094Z,3.17
2023-02-28T01:53:34.328Z,3.14
2023-02-28T01:56:02.560Z,3.18
2023-02-28T01:58:30.350Z,3.10
2023-02-28T02:00:59.668Z,3.13
2023-02-28T02:03:28.040Z,3.16
2023-02-28T02:05:55.813Z,3.15
2023-02-28T02:08:26.526Z,3.16
2023-02-28T02:10:58.137Z,3.16
2023-02-28T02:13:42.638Z,3.15
2023-02-28T02:16:25.722Z,3.18
2023-02-28T02:18:56.676Z,3.12
2023-02-28T02:22:02.445Z,3.11
2023-02-28T02:24:56.060Z,2.99
2023-02-28T02:27:38.509Z,3.08
2023-02-28T02:30:45.797Z,3.04
2023-02-28T02:33:38.394Z,3.07
2023-02-28T02:36:15.537Z,3.08
2023-02-28T02:38:51.854Z,2.84
2023-02-28T02:41:27.793Z,3.08
2023-02-28T02:44:04.359Z,3.07
2023-02-28T02:46:37.530Z,3.09
2023-02-28T02:49:10.422Z,3.09
2023-02-28T02:51:42.695Z,2.92
2023-02-28T02:54:16.795Z,3.06
2023-02-28T02:56:47.349Z,3.06
2023-02-28T02:59:21.922Z,2.93
2023-02-28T03:01:52.753Z,2.97
2023-02-28T03:04:23.479Z,2.88
2023-02-28T03:06:55.685Z,2.83
2023-02-28T03:09:23.472Z,2.80
2023-02-28T03:11:53.913Z,2.73
2023-02-28T03:14:30.837Z,2.71
2023-02-28T03:17:20.898Z,2.66
2023-02-28T03:20:17.547Z,2.69
2023-02-28T03:23:10.960Z,2.67
2023-02-28T03:25:46.629Z,2.44
2023-02-28T03:28:20.209Z,2.56
2023-02-28T03:30:54.669Z,2.55
2023-02-28T03:33:26.348Z,2.51
2023-02-28T03:36:01.569Z,2.28
2023-02-28T03:38:35.815Z,2.25
2023-02-28T03:41:08.683Z,2.46
2023-02-28T03:43:42.940Z,2.50
2023-02-28T03:46:22.672Z,2.36
2023-02-28T03:48:55.620Z,2.40
2023-02-28T03:51:26.374Z,2.41
2023-02-28T03:54:00.863Z,2.38
2023-02-28T03:56:33.506Z,2.39
2023-02-28T03:59:07.228Z,2.38
2023-02-28T04:01:42.311Z,2.16
2023-02-28T04:04:11.100Z,2.32
2023-02-28T04:06:39.446Z,2.29
2023-02-28T04:09:14.808Z,2.31
2023-02-28T04:11:44.521Z,2.33
2023-02-28T04:14:13.525Z,2.32
2023-02-28T04:16:43.229Z,2.34
2023-02-28T04:19:12.869Z,2.27
2023-02-28T04:21:42.738Z,2.39
2023-02-28T04:24:15.507Z,2.40
2023-02-28T04:26:52.429Z,2.35
2023-02-28T04:29:25.046Z,2.37
2023-02-28T04:31:54.162Z,2.42
2023-02-28T04:34:22.516Z,2.42
2023-02-28T04:37:02.722Z,2.37
2023-02-28T04:39:39.735Z,2.40
2023-02-28T04:42:08.050Z,2.35
2023-02-28T04:44:35.975Z,2.42
2023-02-28T04:47:03.720Z,2.45
2023-02-28T04:49:31.466Z,2.33
2023-02-28T04:51:59.241Z,2.45
2023-02-28T04:54:27.404Z,2.23
2023-02-28T04:56:56.605Z,2.44
2023-02-28T04:59:24.382Z,2.46
2023-02-28T05:01:52.194Z,2.50
2023-02-28T05:04:20.038Z,2.51
2023-02-28T05:06:47.904Z,2.53
2023-02-28T05:09:15.992Z,2.35
2023-02-28T05:11:43.942Z,2.52
2023-02-28T05:14:15.884Z,2.50
2023-02-28T05:16:44.449Z,2.35
2023-02-28T05:19:19.750Z,1.76
2023-02-28T05:21:53.796Z,2.46
2023-02-28T05:24:23.920Z,2.56
2023-02-28T05:26:53.794Z,2.64
2023-02-28T05:29:23.210Z,2.64
2023-02-28T05:31:51.225Z,2.65
2023-02-28T05:34:19.165Z,2.57
2023-02-28T05:37:22.833Z,2.07
2023-02-28T05:39:50.641Z,2.64
2023-02-28T05:42:18.441Z,2.65
2023-02-28T05:44:48.294Z,2.65
2023-02-28T05:47:16.582Z,2.65
2023-02-28T05:49:44.541Z,2.66
2023-02-28T05:52:12.308Z,2.60
2023-02-28T05:54:40.200Z,2.67
2023-02-28T05:57:22.794Z,2.66
2023-02-28T05:59:53.531Z,2.68
2023-02-28T06:02:21.384Z,2.67
2023-02-28T06:04:49.202Z,2.56
2023-02-28T06:07:18.563Z,2.59
2023-02-28T06:09:46.275Z,2.67
2023-02-28T06:12:14.037Z,2.63
2023-02-28T06:14:41.997Z,2.64
2023-02-28T06:17:12.102Z,2.62
2023-02-28T06:19:42.206Z,2.63
2023-02-28T06:22:09.977Z,2.63
2023-02-28T06:24:37.793Z,2.65
2023-02-28T06:27:06.257Z,2.61
2023-02-28T06:29:35.123Z,2.59
2023-02-28T06:32:03.280Z,2.58
2023-02-28T06:34:32.429Z,2.58
2023-02-28T06:37:03.271Z,2.58
2023-02-28T06:39:31.138Z,2.61
2023-02-28T06:41:58.979Z,2.61
2023-02-28T06:44:26.769Z,2.60
2023-02-28T06:46:54.594Z,2.65
2023-02-28T06:49:22.519Z,2.45
2023-02-28T06:51:51.603Z,2.67
2023-02-28T06:54:19.397Z,2.65
2023-02-28T06:56:47.739Z,2.69
2023-02-28T06:59:15.813Z,2.72
2023-02-28T07:01:43.571Z,2.75
2023-02-28T07:04:11.521Z,2.71
2023-02-28T07:06:39.313Z,2.76
2023-02-28T07:09:09.347Z,2.76
2023-02-28T07:11:37.108Z,2.77
2023-02-28T07:14:05.001Z,2.80
2023-02-28T07:16:32.841Z,2.80
2023-02-28T07:19:00.670Z,2.82
2023-02-28T07:21:28.980Z,2.65
2023-02-28T07:23:58.559Z,2.86
2023-02-28T07:26:27.637Z,2.88
2023-02-28T07:28:55.438Z,2.89
2023-02-28T07:31:26.670Z,2.91
2023-02-28T07:33:54.947Z,2.95
2023-02-28T07:36:22.798Z,2.96
2023-02-28T07:38:51.771Z,2.99
2023-02-28T07:41:21.411Z,3.06
2023-02-28T07:43:50.700Z,3.10
2023-02-28T07:46:22.151Z,3.10
2023-02-28T07:48:50.265Z,3.10
2023-02-28T07:51:18.426Z,3.16
2023-02-28T07:53:46.239Z,3.21
2023-02-28T07:56:14.096Z,3.25
2023-02-28T07:58:41.904Z,3.29
2023-02-28T08:01:12.560Z,3.31
2023-02-28T08:03:41.274Z,3.34
2023-02-28T08:06:16.839Z,3.35
2023-02-28T08:08:45.388Z,3.40
2023-02-28T08:11:13.223Z,3.40
2023-02-28T08:13:41.164Z,3.52
2023-02-28T08:16:08.939Z,3.45
2023-02-28T08:18:38.514Z,3.60
2023-02-28T08:21:10.036Z,3.60
2023-02-28T08:23:38.230Z,3.61
2023-02-28T08:26:06.455Z,3.63
2023-02-28T08:28:34.382Z,3.76
2023-02-28T08:31:02.226Z,3.80
2023-02-28T08:33:30.250Z,3.88
2023-02-28T08:35:59.389Z,3.91
2023-02-28T08:38:27.202Z,3.88
2023-02-28T08:41:01.158Z,3.98
2023-02-28T08:43:28.982Z,4.02
2023-02-28T08:45:58.156Z,4.05
2023-02-28T08:48:26.854Z,4.07
2023-02-28T08:51:07.280Z,4.05
2023-02-28T08:53:36.433Z,4.09
2023-02-28T08:56:06.653Z,4.06
2023-02-28T08:58:35.625Z,4.13
2023-02-28T09:01:10.468Z,3.98
2023-02-28T09:03:38.404Z,4.23
2023-02-28T09:06:07.813Z,4.24
2023-02-28T09:08:38.756Z,4.32
2023-02-28T09:11:07.056Z,4.31
2023-02-28T09:13:38.223Z,4.32
2023-02-28T09:16:07.919Z,4.31
2023-02-28T09:18:37.004Z,4.38
2023-02-28T09:21:07.168Z,4.38
2023-02-28T09:23:35.052Z,4.50
2023-02-28T09:26:02.883Z,4.58
2023-02-28T09:28:30.734Z,4.66
2023-02-28T09:30:59.888Z,4.53
2023-02-28T09:33:28.366Z,4.64
2023-02-28T09:36:01.196Z,4.65
2023-02-28T09:38:31.237Z,4.67
2023-02-28T09:41:01.590Z,4.72
2023-02-28T09:43:33.940Z,4.58
2023-02-28T09:46:14.341Z,4.96
2023-02-28T09:48:46.495Z,5.01
2023-02-28T09:51:26.226Z,5.24
2023-02-28T09:54:01.368Z,5.29
2023-02-28T09:56:35.180Z,5.36
2023-02-28T09:59:08.193Z,5.61
2023-02-28T10:01:41.206Z,5.96
2023-02-28T10:04:18.639Z,6.17
2023-02-28T10:06:50.700Z,6.37
2023-02-28T10:09:24.620Z,6.42
2023-02-28T10:11:56.087Z,6.69
2023-02-28T10:14:28.279Z,6.90
2023-02-28T10:16:59.894Z,6.88
2023-02-28T10:19:33.840Z,7.01
2023-02-28T10:22:07.264Z,7.09
2023-02-28T10:24:46.540Z,7.43
2023-02-28T10:27:18.390Z,7.57
2023-02-28T10:29:47.810Z,7.73
2023-02-28T10:32:18.819Z,7.67
2023-02-28T10:35:00.138Z,7.64
2023-02-28T10:37:32.836Z,7.98
2023-02-28T10:40:01.967Z,8.11
2023-02-28T10:42:31.689Z,8.26
2023-02-28T10:45:15.763Z,8.31
2023-02-28T10:47:54.978Z,8.52
2023-02-28T10:50:31.062Z,8.72
2023-02-28T10:53:10.986Z,8.75
2023-02-28T10:55:40.674Z,8.16
2023-02-28T10:58:23.133Z,8.09
2023-02-28T11:00:51.119Z,8.59
2023-02-28T11:03:34.218Z,8.95
2023-02-28T11:06:08.815Z,9.36
2023-02-28T11:08:45.446Z,9.60
2023-02-28T11:11:14.781Z,9.87
2023-02-28T11:13:42.722Z,10.25
2023-02-28T11:16:13.589Z,10.51
2023-02-28T11:18:46.027Z,10.64
2023-02-28T11:21:20.870Z,10.82
2023-02-28T11:23:51.372Z,11.12
2023-02-28T11:26:38.967Z,11.16
2023-02-28T11:29:21.756Z,11.35
2023-02-28T11:32:12.194Z,10.21
2023-02-28T11:34:41.184Z,9.76
2023-02-28T11:37:14.989Z,9.80
2023-02-28T11:39:43.512Z,9.76
2023-02-28T11:42:41.724Z,10.52
2023-02-28T11:45:28.754Z,10.75
2023-02-28T11:48:04.058Z,11.03
2023-02-28T11:50:47.920Z,11.12
2023-02-28T11:53:24.099Z,11.33
2023-02-28T11:56:00.490Z,11.41
2023-02-28T11:58:38.929Z,11.45
2023-02-28T12:01:43.674Z,11.18
2023-02-28T12:04:26.081Z,10.91
2023-02-28T12:06:59.210Z,10.69
2023-02-28T12:09:41.788Z,10.69
2023-02-28T12:12:24.496Z,10.70
2023-02-28T12:15:16.867Z,10.98
2023-02-28T12:17:57.405Z,11.11
2023-02-28T12:20:35.500Z,10.81
2023-02-28T12:23:21.784Z,10.81
2023-02-28T12:26:07.461Z,10.85
2023-02-28T12:28:39.897Z,10.64
2023-02-28T12:31:19.909Z,10.69
2023-02-28T12:33:52.599Z,10.89
2023-02-28T12:36:23.121Z,10.76
2023-02-28T12:38:58.865Z,10.36
2023-02-28T12:41:36.218Z,10.75
2023-02-28T12:44:08.143Z,10.90
2023-02-28T12:46:43.342Z,10.95
2023-02-28T12:49:15.128Z,11.00
2023-02-28T12:51:43.441Z,10.64
2023-02-28T12:54:18.289Z,10.61
2023-02-28T12:56:55.859Z,10.77
2023-02-28T12:59:29.303Z,11.16
2023-02-28T13:02:28.947Z,11.14
2023-02-28T13:05:22.013Z,10.82
2023-02-28T13:08:28.650Z,10.53
2023-02-28T13:10:56.666Z,10.53
2023-02-28T13:13:26.863Z,10.43
2023-02-28T13:16:04.787Z,10.53
2023-02-28T13:18:38.290Z,10.65
2023-02-28T13:21:08.920Z,10.84
2023-02-28T13:23:59.509Z,11.17
2023-02-28T13:27:04.463Z,11.45
2023-02-28T13:29:35.551Z,11.46
2023-02-28T13:32:40.039Z,11.46
2023-02-28T13:35:38.019Z,11.41
2023-02-28T13:38:19.116Z,11.20
2023-02-28T13:40:46.878Z,11.14
2023-02-28T13:43:25.292Z,11.08
2023-02-28T13:46:14.593Z,11.19
2023-02-28T13:48:43.344Z,11.17
2023-02-28T13:51:41.960Z,11.10
2023-02-28T13:54:26.804Z,10.97
2023-02-28T13:57:07.034Z,10.94
2023-02-28T13:59:41.178Z,10.89
2023-02-28T14:02:40.776Z,10.82
2023-02-28T14:05:17.838Z,10.76
2023-02-28T14:07:50.205Z,11.06
2023-02-28T14:10:27.431Z,10.98
2023-02-28T14:13:15.187Z,10.98
2023-02-28T14:15:48.103Z,10.98
2023-02-28T14:18:21.596Z,10.91
2023-02-28T14:20:51.998Z,11.05
2023-02-28T14:23:35.212Z,11.10
2023-02-28T14:26:09.697Z,11.01
2023-02-28T14:28:52.494Z,11.15
2023-02-28T14:31:27.149Z,11.06
2023-02-28T14:34:15.914Z,11.08
2023-02-28T14:36:45.956Z,10.92
2023-02-28T14:39:17.393Z,10.96
2023-02-28T14:41:46.690Z,10.75
2023-02-28T14:44:20.218Z,10.77
2023-02-28T14:46:50.741Z,10.74
2023-02-28T14:49:29.833Z,10.67
2023-02-28T14:52:10.590Z,10.54
2023-02-28T14:54:40.373Z,10.49
2023-02-28T14:57:08.315Z,10.51
2023-02-28T14:59:37.642Z,10.42
2023-02-28T15:02:23.846Z,10.32
2023-02-28T15:04:58.684Z,10.24
2023-02-28T15:07:30.297Z,10.28
2023-02-28T15:10:20.497Z,10.08
2023-02-28T15:12:54.720Z,10.22
2023-02-28T15:15:40.312Z,10.21
2023-02-28T15:18:21.988Z,10.05
2023-02-28T15:21:10.004Z,10.06
2023-02-28T15:23:45.752Z,9.32
2023-02-28T15:26:35.045Z,9.46
2023-02-28T15:29:20.808Z,9.04
2023-02-28T15:31:57.566Z,9.54
2023-02-28T15:34:40.624Z,9.50
2023-02-28T15:37:35.619Z,9.34
2023-02-28T15:40:14.963Z,9.19
2023-02-28T15:42:45.520Z,9.18
2023-02-28T15:45:31.210Z,9.09
2023-02-28T15:48:12.261Z,9.03
2023-02-28T15:50:42.142Z,8.96
2023-02-28T15:53:16.340Z,8.92
2023-02-28T15:55:44.508Z,8.85
2023-02-28T15:58:15.363Z,8.87
2023-02-28T16:00:50.470Z,8.76
2023-02-28T16:03:42.127Z,8.72
2023-02-28T16:06:28.128Z,8.63
2023-02-28T16:08:55.987Z,8.53
2023-02-28T16:11:24.420Z,8.57
2023-02-28T16:13:57.374Z,8.53
2023-02-28T16:16:29.163Z,8.24
2023-02-28T16:18:56.981Z,8.19
2023-02-28T16:21:26.154Z,8.37
2023-02-28T16:23:54.076Z,8.26
2023-02-28T16:26:24.873Z,8.13
2023-02-28T16:28:54.406Z,8.27
2023-02-28T16:31:22.658Z,8.23
2023-02-28T16:33:51.082Z,8.08
2023-02-28T16:36:21.730Z,8.14
2023-02-28T16:38:50.187Z,8.08
2023-02-28T16:41:21.129Z,8.06
2023-02-28T16:43:53.684Z,7.96
2023-02-28T16:46:23.297Z,7.97
2023-02-28T16:48:52.349Z,7.83
2023-02-28T16:51:20.532Z,7.87
2023-02-28T16:53:48.558Z,7.85
2023-02-28T16:56:19.500Z,7.82
2023-02-28T16:58:47.786Z,7.75
2023-02-28T17:01:16.399Z,7.72
2023-02-28T17:03:45.581Z,7.66
2023-02-28T17:06:21.061Z,7.59
2023-02-28T17:08:48.805Z,7.57
2023-02-28T17:11:17.050Z,7.52
2023-02-28T17:13:44.844Z,7.53
2023-02-28T17:16:29.512Z,7.41
2023-02-28T17:19:04.382Z,7.47
2023-02-28T17:21:32.654Z,7.44
2023-02-28T17:24:01.125Z,7.38
2023-02-28T17:26:30.070Z,7.36
2023-02-28T17:28:59.210Z,7.30
2023-02-28T17:31:28.500Z,7.30
2023-02-28T17:33:56.612Z,7.22
2023-02-28T17:36:28.527Z,7.24
2023-02-28T17:38:57.019Z,7.21
2023-02-28T17:41:25.263Z,7.12
2023-02-28T17:43:53.015Z,7.06
2023-02-28T17:46:23.794Z,7.08
2023-02-28T17:48:52.456Z,6.99
2023-02-28T17:51:21.882Z,6.93
2023-02-28T17:53:52.220Z,6.94
2023-02-28T17:56:22.570Z,6.92
2023-02-28T17:58:50.669Z,6.88
2023-02-28T18:01:18.833Z,6.86
2023-02-28T18:03:46.716Z,6.83
2023-02-28T18:06:18.869Z,6.76
2023-02-28T18:08:46.961Z,6.74
2023-02-28T18:11:21.989Z,6.66
2023-02-28T18:13:51.638Z,6.62
2023-02-28T18:16:20.449Z,6.49
2023-02-28T18:18:48.601Z,6.58
2023-02-28T18:21:17.572Z,6.57
2023-02-28T18:23:49.020Z,6.34
2023-02-28T18:26:20.249Z,6.45
2023-02-28T18:28:48.620Z,6.43
2023-02-28T18:31:19.216Z,6.41
2023-02-28T18:33:50.651Z,6.42
2023-02-28T18:36:19.181Z,6.30
2023-02-28T18:38:47.017Z,6.38
2023-02-28T18:41:14.737Z,6.35
2023-02-28T18:43:44.349Z,6.36
2023-02-28T18:46:14.438Z,6.34
2023-02-28T18:48:42.907Z,6.30
2023-02-28T18:51:12.586Z,6.24
2023-02-28T18:53:41.897Z,6.04
2023-02-28T18:56:13.268Z,6.18
2023-02-28T18:58:43.180Z,6.21
2023-02-28T19:01:18.215Z,6.21
2023-02-28T19:03:46.589Z,6.03
2023-02-28T19:06:15.177Z,6.14
2023-02-28T19:08:43.032Z,6.11
2023-02-28T19:11:11.239Z,6.06
2023-02-28T19:13:39.042Z,6.01
2023-02-28T19:16:11.883Z,6.00
2023-02-28T19:18:42.019Z,5.94
2023-02-28T19:21:15.482Z,5.93
2023-02-28T19:23:43.824Z,5.88
2023-02-28T19:26:14.044Z,5.88
2023-02-28T19:28:41.917Z,5.85
2023-02-28T19:31:15.082Z,5.81
2023-02-28T19:33:43.374Z,5.72
2023-02-28T19:36:12.576Z,5.67
2023-02-28T19:38:40.893Z,5.68
2023-02-28T19:41:11.391Z,5.60
2023-02-28T19:43:39.440Z,5.59
2023-02-28T19:46:09.563Z,5.58
2023-02-28T19:48:39.078Z,5.58
2023-02-28T19:51:09.072Z,5.56
2023-02-28T19:53:38.565Z,5.53
2023-02-28T19:56:08.477Z,5.51
2023-02-28T19:58:37.114Z,5.36
2023-02-28T20:01:09.338Z,5.45
2023-02-28T20:03:38.532Z,5.41
2023-02-28T20:06:09.713Z,5.35
2023-02-28T20:08:38.553Z,5.41
2023-02-28T20:11:07.623Z,5.41
2023-02-28T20:13:36.312Z,5.38
2023-02-28T20:16:09.506Z,5.18
2023-02-28T20:18:40.125Z,5.27
2023-02-28T20:21:09.418Z,5.25
2023-02-28T20:23:38.754Z,5.18
2023-02-28T20:26:06.904Z,5.15
2023-02-28T20:28:34.620Z,5.13
2023-02-28T20:31:02.647Z,5.10
2023-02-28T20:33:30.628Z,5.07
2023-02-28T20:36:05.269Z,5.02
2023-02-28T20:38:32.979Z,4.97
2023-02-28T20:41:04.644Z,4.92
2023-02-28T20:43:32.472Z,4.87
2023-02-28T20:46:01.742Z,4.87
2023-02-28T20:48:30.465Z,4.82
2023-02-28T20:51:00.040Z,4.81
2023-02-28T20:53:29.684Z,4.76
2023-02-28T20:55:58.448Z,4.72
2023-02-28T20:58:28.005Z,4.71
2023-02-28T21:01:01.106Z,4.66
2023-02-28T21:03:29.324Z,4.64
2023-02-28T21:06:05.586Z,4.61
2023-02-28T21:08:38.149Z,4.54
2023-02-28T21:11:08.909Z,4.44
2023-02-28T21:13:37.461Z,4.42
2023-02-28T21:16:06.872Z,4.50
2023-02-28T21:18:35.584Z,4.55
2023-02-28T21:21:04.262Z,4.47
2023-02-28T21:23:32.565Z,4.44
2023-02-28T21:26:06.985Z,4.46
2023-02-28T21:28:38.172Z,4.48
2023-02-28T21:31:10.190Z,4.45
2023-02-28T21:33:39.630Z,4.40
2023-02-28T21:36:16.251Z,4.33
2023-02-28T21:38:46.613Z,4.50
2023-02-28T21:41:24.034Z,4.48
2023-02-28T21:43:53.194Z,4.47
2023-02-28T21:46:27.994Z,4.45
2023-02-28T21:48:56.725Z,4.39
2023-02-28T21:51:26.283Z,4.39
2023-02-28T21:53:54.119Z,4.33
2023-02-28T21:56:27.829Z,4.36
2023-02-28T21:59:00.719Z,4.32
2023-02-28T22:01:31.290Z,4.29
2023-02-28T22:04:00.256Z,4.27
2023-02-28T22:06:30.284Z,4.14
2023-02-28T22:09:00.178Z,4.22
2023-02-28T22:11:31.805Z,4.23
2023-02-28T22:14:00.616Z,4.21
2023-02-28T22:16:33.205Z,4.10
2023-02-28T22:19:07.579Z,4.03
2023-02-28T22:21:36.280Z,4.08
2023-02-28T22:24:05.617Z,4.06
2023-02-28T22:26:35.062Z,4.05
2023-02-28T22:29:06.127Z,4.01
2023-02-28T22:31:36.185Z,3.82
2023-02-28T22:34:09.276Z,3.95
2023-02-28T22:36:38.139Z,3.96
2023-02-28T22:39:08.709Z,3.96
2023-02-28T22:41:38.230Z,3.98
2023-02-28T22:44:07.616Z,3.98
2023-02-28T22:46:36.867Z,3.82
2023-02-28T22:49:08.139Z,3.92
2023-02-28T22:51:37.877Z,3.77
2023-02-28T22:54:06.059Z,3.70
2023-02-28T22:56:34.261Z,3.69
2023-02-28T22:59:03.927Z,3.89
2023-02-28T23:01:33.825Z,3.84
2023-02-28T23:04:05.758Z,3.87
2023-02-28T23:06:42.056Z,3.88
2023-02-28T23:09:17.939Z,3.88
2023-02-28T23:11:48.600Z,3.76
2023-02-28T23:14:20.041Z,3.85
2023-02-28T23:16:49.416Z,3.72
2023-02-28T23:19:22.043Z,3.77
2023-02-28T23:21:50.104Z,3.73
2023-02-28T23:24:22.544Z,3.49
2023-02-28T23:26:52.410Z,3.62
2023-02-28T23:29:23.021Z,3.50
2023-02-28T23:31:51.303Z,3.54
2023-02-28T23:34:40.216Z,3.45
2023-02-28T23:37:10.765Z,3.38
2023-02-28T23:39:38.487Z,3.36
2023-02-28T23:42:06.316Z,3.15
2023-02-28T23:44:35.447Z,3.40
2023-02-28T23:47:03.436Z,3.20
2023-02-28T23:49:31.272Z,3.17
2023-02-28T23:51:59.146Z,3.36
2023-02-28T23:54:26.943Z,3.39
2023-02-28T23:56:55.008Z,3.03
2023-02-28T23:59:22.877Z,3.39
